Tapachula International Airport
MMTP : now visible

Airfield :











YOU CAN JOIN US ON...

 
LOGIN :

Register | Disclaimer

   EN    FR    IT 

 









Legend :    VFR   Marginal VFR   IFR   Intensive IFR   Very Intensive IFR
Visi :
Ceiling :
>= 8 km
>= 3000ft
5 to 8 km
1000 to 3000 ft
1500m to 5 km
500 to 1000 ft
800 to 1500m
200 to 500 ft
< 800m
< 200 ft
Symbols :   Thunderstorms  Fog  Heavy snow  Heavy precipitations  Wind > 20 kt






- Airport Elevation : 97 ft
- IATA code : TAP


MMTP - Tapachula International

CURRENT METAR :
  • 011440Z 31006KT 10SM SKC 30/24 A2988 RMK SLP143 52024 955 HZY

EXPIRED METARs :
  • 011340Z 02004KT 10SM SKC 29/23 A2987 RMK HZY BR
  • 011240Z 00000KT 10SM SCT200 24/23 A2984 RMK 8/003 HZY

TAF TAF MMTP
Valid from the 01 at 12:00 until the 02 at 18:00 UTC


011108Z 0112/0218 00000KT P6SM SKC
FM011800 25010KT P6SM SCT030 SCT200
TEMPO 0200/0204 6SM TSRA BKN020CB
FM020600 23005KT 6SM HZ SCT020 BKN200
FM021800 23010KT P6SM SCT030



MET'MAP, your aeronautical weather chart ! - Copyright ORBIFLY December 2007 - Disclaimer

ORBIFLY MET'MAP TEAM :

Programming & Development : Alexandra Zaïnal
Concept & original design : Baudouin d'Aumeries
Assistance for programming : Marc-Olivier Méhu
Technical & hardware support : Manuel Goepfert

Contact : metmap@orbifly.com




SOURCES & CREDITS :

   NOAA       Earth
Advisory